sensor_id;sensor_type;location;lat;lon;timestamp;P1;durP1;ratioP1;P2;durP2;ratioP2
69280;SDS011;56392;51.082;17.080;2022-11-21T00:03:35;118.47;;;42.53;;
69280;SDS011;56392;51.082;17.080;2022-11-21T00:08:43;115.30;;;42.60;;
69280;SDS011;56392;51.082;17.080;2022-11-21T00:13:46;140.70;;;48.13;;
69280;SDS011;56392;51.082;17.080;2022-11-21T00:18:49;186.18;;;62.63;;
69280;SDS011;56392;51.082;17.080;2022-11-21T00:23:55;337.17;;;112.10;;
69280;SDS011;56392;51.082;17.080;2022-11-21T00:28:58;429.53;;;123.20;;
69280;SDS011;56392;51.082;17.080;2022-11-21T00:34:00;654.58;;;186.45;;
69280;SDS011;56392;51.082;17.080;2022-11-21T00:39:05;418.63;;;126.07;;
69280;SDS011;56392;51.082;17.080;2022-11-21T00:44:08;375.45;;;113.07;;
69280;SDS011;56392;51.082;17.080;2022-11-21T00:49:11;356.13;;;104.15;;
69280;SDS011;56392;51.082;17.080;2022-11-21T00:54:15;450.63;;;125.60;;
69280;SDS011;56392;51.082;17.080;2022-11-21T00:59:17;359.38;;;102.28;;
69280;SDS011;56392;51.082;17.080;2022-11-21T01:04:20;263.50;;;77.83;;
69280;SDS011;56392;51.082;17.080;2022-11-21T01:09:24;344.67;;;98.75;;
69280;SDS011;56392;51.082;17.080;2022-11-21T01:14:28;513.22;;;146.38;;
69280;SDS011;56392;51.082;17.080;2022-11-21T01:19:31;455.93;;;125.60;;
69280;SDS011;56392;51.082;17.080;2022-11-21T01:24:36;326.27;;;94.00;;
69280;SDS011;56392;51.082;17.080;2022-11-21T01:29:38;215.50;;;67.40;;
69280;SDS011;56392;51.082;17.080;2022-11-21T01:34:41;155.77;;;48.83;;
69280;SDS011;56392;51.082;17.080;2022-11-21T01:39:45;169.77;;;50.53;;
69280;SDS011;56392;51.082;17.080;2022-11-21T01:44:50;192.03;;;63.30;;
69280;SDS011;56392;51.082;17.080;2022-11-21T01:49:54;110.57;;;40.17;;
69280;SDS011;56392;51.082;17.080;2022-11-21T01:54:59;193.13;;;58.17;;
69280;SDS011;56392;51.082;17.080;2022-11-21T02:00:06;96.20;;;34.65;;
69280;SDS011;56392;51.082;17.080;2022-11-21T02:05:12;157.93;;;49.72;;
69280;SDS011;56392;51.082;17.080;2022-11-21T02:10:19;311.80;;;88.57;;
69280;SDS011;56392;51.082;17.080;2022-11-21T02:15:23;296.20;;;86.22;;
69280;SDS011;56392;51.082;17.080;2022-11-21T02:20:28;276.43;;;72.07;;
69280;SDS011;56392;51.082;17.080;2022-11-21T02:25:34;172.30;;;53.20;;
69280;SDS011;56392;51.082;17.080;2022-11-21T02:30:39;109.35;;;38.17;;
69280;SDS011;56392;51.082;17.080;2022-11-21T02:35:43;191.67;;;55.37;;
69280;SDS011;56392;51.082;17.080;2022-11-21T02:40:50;258.00;;;71.80;;
69280;SDS011;56392;51.082;17.080;2022-11-21T02:45:56;101.82;;;35.70;;
69280;SDS011;56392;51.082;17.080;2022-11-21T02:51:00;272.93;;;79.50;;
69280;SDS011;56392;51.082;17.080;2022-11-21T02:56:04;293.02;;;82.45;;
69280;SDS011;56392;51.082;17.080;2022-11-21T03:01:07;206.67;;;59.93;;
69280;SDS011;56392;51.082;17.080;2022-11-21T03:06:09;82.97;;;31.25;;
69280;SDS011;56392;51.082;17.080;2022-11-21T03:11:14;192.10;;;55.72;;
69280;SDS011;56392;51.082;17.080;2022-11-21T03:16:17;212.53;;;59.13;;
69280;SDS011;56392;51.082;17.080;2022-11-21T03:21:20;284.42;;;80.88;;
69280;SDS011;56392;51.082;17.080;2022-11-21T03:26:24;416.57;;;97.03;;
69280;SDS011;56392;51.082;17.080;2022-11-21T03:31:27;384.75;;;98.53;;
69280;SDS011;56392;51.082;17.080;2022-11-21T03:36:29;362.73;;;91.82;;
69280;SDS011;56392;51.082;17.080;2022-11-21T03:41:35;331.83;;;87.37;;
69280;SDS011;56392;51.082;17.080;2022-11-21T03:46:38;409.10;;;94.57;;
69280;SDS011;56392;51.082;17.080;2022-11-21T03:51:42;378.90;;;91.00;;
69280;SDS011;56392;51.082;17.080;2022-11-21T03:56:47;342.43;;;86.17;;
69280;SDS011;56392;51.082;17.080;2022-11-21T04:01:50;325.40;;;83.60;;
69280;SDS011;56392;51.082;17.080;2022-11-21T04:06:53;322.73;;;79.87;;
69280;SDS011;56392;51.082;17.080;2022-11-21T04:11:58;371.67;;;86.43;;
69280;SDS011;56392;51.082;17.080;2022-11-21T04:17:01;386.13;;;89.88;;
69280;SDS011;56392;51.082;17.080;2022-11-21T04:22:05;319.67;;;86.17;;
69280;SDS011;56392;51.082;17.080;2022-11-21T04:27:11;375.40;;;96.43;;
69280;SDS011;56392;51.082;17.080;2022-11-21T04:32:14;342.20;;;93.30;;
69280;SDS011;56392;51.082;17.080;2022-11-21T04:37:17;489.70;;;113.53;;
69280;SDS011;56392;51.082;17.080;2022-11-21T04:42:21;549.07;;;128.17;;
69280;SDS011;56392;51.082;17.080;2022-11-21T04:47:24;434.00;;;90.55;;
69280;SDS011;56392;51.082;17.080;2022-11-21T04:52:26;369.63;;;87.50;;
69280;SDS011;56392;51.082;17.080;2022-11-21T04:57:31;341.90;;;83.55;;
69280;SDS011;56392;51.082;17.080;2022-11-21T05:02:33;347.23;;;88.07;;
69280;SDS011;56392;51.082;17.080;2022-11-21T05:07:36;437.90;;;96.87;;
69280;SDS011;56392;51.082;17.080;2022-11-21T05:12:40;472.17;;;99.90;;
69280;SDS011;56392;51.082;17.080;2022-11-21T05:18:01;384.42;;;91.07;;
69280;SDS011;56392;51.082;17.080;2022-11-21T05:23:03;367.30;;;85.33;;
69280;SDS011;56392;51.082;17.080;2022-11-21T05:28:08;325.73;;;71.28;;
69280;SDS011;56392;51.082;17.080;2022-11-21T05:33:11;339.07;;;72.17;;
69280;SDS011;56392;51.082;17.080;2022-11-21T05:38:14;343.73;;;78.43;;
69280;SDS011;56392;51.082;17.080;2022-11-21T05:43:18;344.83;;;83.82;;
69280;SDS011;56392;51.082;17.080;2022-11-21T05:48:39;369.00;;;75.97;;
69280;SDS011;56392;51.082;17.080;2022-11-21T05:53:43;325.43;;;74.07;;
69280;SDS011;56392;51.082;17.080;2022-11-21T05:58:47;374.55;;;83.60;;
69280;SDS011;56392;51.082;17.080;2022-11-21T06:03:50;488.37;;;92.73;;
69280;SDS011;56392;51.082;17.080;2022-11-21T06:08:53;334.67;;;79.80;;
69280;SDS011;56392;51.082;17.080;2022-11-21T06:13:58;347.05;;;83.60;;
69280;SDS011;56392;51.082;17.080;2022-11-21T06:19:00;217.77;;;57.57;;
69280;SDS011;56392;51.082;17.080;2022-11-21T06:24:06;411.50;;;75.05;;
69280;SDS011;56392;51.082;17.080;2022-11-21T06:29:11;421.50;;;90.55;;
69280;SDS011;56392;51.082;17.080;2022-11-21T06:34:13;405.23;;;87.43;;
69280;SDS011;56392;51.082;17.080;2022-11-21T06:39:16;320.75;;;80.75;;
69280;SDS011;56392;51.082;17.080;2022-11-21T06:44:20;310.87;;;80.83;;
69280;SDS011;56392;51.082;17.080;2022-11-21T06:49:23;318.73;;;75.60;;
69280;SDS011;56392;51.082;17.080;2022-11-21T06:54:26;330.67;;;79.85;;
69280;SDS011;56392;51.082;17.080;2022-11-21T06:59:30;310.60;;;80.33;;
69280;SDS011;56392;51.082;17.080;2022-11-21T07:04:32;297.13;;;76.70;;
69280;SDS011;56392;51.082;17.080;2022-11-21T07:09:35;298.50;;;76.55;;
69280;SDS011;56392;51.082;17.080;2022-11-21T07:14:39;288.17;;;73.07;;
69280;SDS011;56392;51.082;17.080;2022-11-21T07:19:42;306.60;;;75.87;;
69280;SDS011;56392;51.082;17.080;2022-11-21T07:24:44;321.60;;;76.90;;
69280;SDS011;56392;51.082;17.080;2022-11-21T07:29:49;293.27;;;77.73;;
69280;SDS011;56392;51.082;17.080;2022-11-21T07:34:52;282.67;;;71.53;;
69280;SDS011;56392;51.082;17.080;2022-11-21T07:39:55;275.60;;;71.07;;
69280;SDS011;56392;51.082;17.080;2022-11-21T07:44:59;230.47;;;63.00;;
69280;SDS011;56392;51.082;17.080;2022-11-21T07:50:01;240.60;;;65.23;;
69280;SDS011;56392;51.082;17.080;2022-11-21T07:55:05;221.57;;;62.30;;
69280;SDS011;56392;51.082;17.080;2022-11-21T08:00:10;204.00;;;58.07;;
69280;SDS011;56392;51.082;17.080;2022-11-21T08:05:13;207.43;;;60.10;;
69280;SDS011;56392;51.082;17.080;2022-11-21T08:10:16;193.35;;;57.42;;
69280;SDS011;56392;51.082;17.080;2022-11-21T08:15:21;205.20;;;60.45;;
69280;SDS011;56392;51.082;17.080;2022-11-21T08:20:23;203.17;;;62.23;;
69280;SDS011;56392;51.082;17.080;2022-11-21T08:25:26;184.30;;;55.92;;
69280;SDS011;56392;51.082;17.080;2022-11-21T08:30:30;176.52;;;56.05;;
69280;SDS011;56392;51.082;17.080;2022-11-21T08:35:34;156.07;;;50.60;;
69280;SDS011;56392;51.082;17.080;2022-11-21T08:40:38;137.13;;;43.75;;
69280;SDS011;56392;51.082;17.080;2022-11-21T08:45:42;123.07;;;38.55;;
69280;SDS011;56392;51.082;17.080;2022-11-21T08:50:45;140.23;;;42.83;;
69280;SDS011;56392;51.082;17.080;2022-11-21T08:55:48;110.43;;;37.13;;
69280;SDS011;56392;51.082;17.080;2022-11-21T09:00:52;109.18;;;34.72;;
69280;SDS011;56392;51.082;17.080;2022-11-21T09:05:55;104.77;;;36.87;;
69280;SDS011;56392;51.082;17.080;2022-11-21T09:11:01;112.90;;;38.08;;
69280;SDS011;56392;51.082;17.080;2022-11-21T09:16:06;104.97;;;36.63;;
69280;SDS011;56392;51.082;17.080;2022-11-21T09:21:30;103.20;;;35.80;;
69280;SDS011;56392;51.082;17.080;2022-11-21T09:26:32;93.47;;;33.97;;
69280;SDS011;56392;51.082;17.080;2022-11-21T09:31:37;91.00;;;32.60;;
69280;SDS011;56392;51.082;17.080;2022-11-21T09:36:39;74.63;;;29.20;;
69280;SDS011;56392;51.082;17.080;2022-11-21T09:41:45;79.20;;;29.97;;
69280;SDS011;56392;51.082;17.080;2022-11-21T09:46:59;76.53;;;30.35;;
69280;SDS011;56392;51.082;17.080;2022-11-21T09:52:08;60.88;;;25.27;;
69280;SDS011;56392;51.082;17.080;2022-11-21T09:57:14;65.90;;;25.57;;
69280;SDS011;56392;51.082;17.080;2022-11-21T10:02:22;56.25;;;23.40;;
69280;SDS011;56392;51.082;17.080;2022-11-21T10:07:26;50.83;;;23.00;;
69280;SDS011;56392;51.082;17.080;2022-11-21T10:12:32;82.60;;;36.07;;
69280;SDS011;56392;51.082;17.080;2022-11-21T10:17:45;53.47;;;24.80;;
69280;SDS011;56392;51.082;17.080;2022-11-21T10:23:02;58.97;;;24.85;;
69280;SDS011;56392;51.082;17.080;2022-11-21T10:28:17;63.38;;;28.45;;
69280;SDS011;56392;51.082;17.080;2022-11-21T10:33:29;85.30;;;33.73;;
69280;SDS011;56392;51.082;17.080;2022-11-21T10:38:36;60.38;;;26.13;;
69280;SDS011;56392;51.082;17.080;2022-11-21T10:43:41;46.38;;;21.75;;
69280;SDS011;56392;51.082;17.080;2022-11-21T10:49:10;53.13;;;24.13;;
69280;SDS011;56392;51.082;17.080;2022-11-21T10:54:14;42.63;;;19.88;;
69280;SDS011;56392;51.082;17.080;2022-11-21T10:59:36;38.42;;;18.65;;
69280;SDS011;56392;51.082;17.080;2022-11-21T11:04:40;37.77;;;19.57;;
69280;SDS011;56392;51.082;17.080;2022-11-21T11:09:43;38.47;;;18.67;;
69280;SDS011;56392;51.082;17.080;2022-11-21T11:14:48;36.22;;;17.88;;
69280;SDS011;56392;51.082;17.080;2022-11-21T11:20:00;27.27;;;16.23;;
69280;SDS011;56392;51.082;17.080;2022-11-21T11:25:05;23.87;;;13.63;;
69280;SDS011;56392;51.082;17.080;2022-11-21T11:30:13;26.80;;;14.05;;
69280;SDS011;56392;51.082;17.080;2022-11-21T11:35:21;27.77;;;15.55;;
69280;SDS011;56392;51.082;17.080;2022-11-21T11:40:24;29.93;;;14.57;;
69280;SDS011;56392;51.082;17.080;2022-11-21T11:45:40;30.73;;;14.93;;
69280;SDS011;56392;51.082;17.080;2022-11-21T11:51:15;24.40;;;13.82;;
69280;SDS011;56392;51.082;17.080;2022-11-21T11:56:23;45.70;;;24.03;;
69280;SDS011;56392;51.082;17.080;2022-11-21T12:01:31;58.13;;;29.73;;
69280;SDS011;56392;51.082;17.080;2022-11-21T12:06:42;53.45;;;23.85;;
69280;SDS011;56392;51.082;17.080;2022-11-21T12:11:51;34.05;;;16.33;;
69280;SDS011;56392;51.082;17.080;2022-11-21T12:17:08;25.70;;;12.63;;
69280;SDS011;56392;51.082;17.080;2022-11-21T12:22:13;29.52;;;15.93;;
69280;SDS011;56392;51.082;17.080;2022-11-21T12:27:20;35.45;;;17.65;;
69280;SDS011;56392;51.082;17.080;2022-11-21T12:32:33;36.73;;;16.53;;
69280;SDS011;56392;51.082;17.080;2022-11-21T12:37:49;51.60;;;21.02;;
69280;SDS011;56392;51.082;17.080;2022-11-21T12:43:07;54.10;;;21.17;;
69280;SDS011;56392;51.082;17.080;2022-11-21T12:48:34;38.13;;;17.67;;
69280;SDS011;56392;51.082;17.080;2022-11-21T12:54:07;52.80;;;22.90;;
69280;SDS011;56392;51.082;17.080;2022-11-21T12:59:34;47.10;;;20.77;;
69280;SDS011;56392;51.082;17.080;2022-11-21T13:04:47;45.75;;;19.17;;
69280;SDS011;56392;51.082;17.080;2022-11-21T13:09:53;40.63;;;19.27;;
69280;SDS011;56392;51.082;17.080;2022-11-21T13:15:01;42.45;;;19.27;;
69280;SDS011;56392;51.082;17.080;2022-11-21T13:20:19;48.13;;;21.88;;
69280;SDS011;56392;51.082;17.080;2022-11-21T13:25:35;76.53;;;29.53;;
69280;SDS011;56392;51.082;17.080;2022-11-21T13:30:46;44.97;;;19.73;;
69280;SDS011;56392;51.082;17.080;2022-11-21T13:41:03;69.27;;;26.10;;
69280;SDS011;56392;51.082;17.080;2022-11-21T13:52:00;63.17;;;25.27;;
69280;SDS011;56392;51.082;17.080;2022-11-21T13:57:12;62.28;;;24.63;;
69280;SDS011;56392;51.082;17.080;2022-11-21T14:07:52;68.05;;;28.08;;
69280;SDS011;56392;51.082;17.080;2022-11-21T14:12:56;45.88;;;20.20;;
69280;SDS011;56392;51.082;17.080;2022-11-21T14:17:59;83.43;;;30.27;;
69280;SDS011;56392;51.082;17.080;2022-11-21T14:23:04;77.65;;;29.83;;
69280;SDS011;56392;51.082;17.080;2022-11-21T14:28:21;111.65;;;36.45;;
69280;SDS011;56392;51.082;17.080;2022-11-21T14:33:30;69.73;;;28.97;;
69280;SDS011;56392;51.082;17.080;2022-11-21T14:38:34;99.47;;;33.90;;
69280;SDS011;56392;51.082;17.080;2022-11-21T14:43:43;58.85;;;24.70;;
69280;SDS011;56392;51.082;17.080;2022-11-21T14:48:46;83.93;;;29.58;;
69280;SDS011;56392;51.082;17.080;2022-11-21T14:53:50;51.57;;;22.73;;
69280;SDS011;56392;51.082;17.080;2022-11-21T14:58:56;87.10;;;30.90;;
69280;SDS011;56392;51.082;17.080;2022-11-21T15:04:02;50.78;;;21.88;;
69280;SDS011;56392;51.082;17.080;2022-11-21T15:09:09;125.80;;;41.53;;
69280;SDS011;56392;51.082;17.080;2022-11-21T15:14:17;128.85;;;40.53;;
69280;SDS011;56392;51.082;17.080;2022-11-21T15:19:24;111.82;;;35.25;;
69280;SDS011;56392;51.082;17.080;2022-11-21T15:24:30;205.07;;;50.40;;
69280;SDS011;56392;51.082;17.080;2022-11-21T15:29:39;169.73;;;45.27;;
69280;SDS011;56392;51.082;17.080;2022-11-21T15:34:42;175.93;;;47.15;;
69280;SDS011;56392;51.082;17.080;2022-11-21T15:39:45;163.48;;;44.72;;
69280;SDS011;56392;51.082;17.080;2022-11-21T15:44:56;177.97;;;46.23;;
69280;SDS011;56392;51.082;17.080;2022-11-21T15:50:00;151.55;;;43.70;;
69280;SDS011;56392;51.082;17.080;2022-11-21T15:55:04;136.10;;;42.17;;
69280;SDS011;56392;51.082;17.080;2022-11-21T16:00:16;166.70;;;43.23;;
69280;SDS011;56392;51.082;17.080;2022-11-21T16:05:19;132.73;;;36.72;;
69280;SDS011;56392;51.082;17.080;2022-11-21T16:10:21;101.57;;;32.50;;
69280;SDS011;56392;51.082;17.080;2022-11-21T16:15:25;121.67;;;35.53;;
69280;SDS011;56392;51.082;17.080;2022-11-21T16:20:28;154.07;;;41.07;;
69280;SDS011;56392;51.082;17.080;2022-11-21T16:25:31;107.38;;;32.78;;
69280;SDS011;56392;51.082;17.080;2022-11-21T16:30:38;137.02;;;36.95;;
69280;SDS011;56392;51.082;17.080;2022-11-21T16:35:41;134.30;;;36.00;;
69280;SDS011;56392;51.082;17.080;2022-11-21T16:40:43;147.15;;;39.55;;
69280;SDS011;56392;51.082;17.080;2022-11-21T16:45:56;122.97;;;36.55;;
69280;SDS011;56392;51.082;17.080;2022-11-21T16:51:08;191.37;;;46.00;;
69280;SDS011;56392;51.082;17.080;2022-11-21T16:56:12;112.32;;;32.58;;
69280;SDS011;56392;51.082;17.080;2022-11-21T17:01:17;111.82;;;33.50;;
69280;SDS011;56392;51.082;17.080;2022-11-21T17:06:22;81.77;;;27.80;;
69280;SDS011;56392;51.082;17.080;2022-11-21T17:11:27;103.83;;;30.30;;
69280;SDS011;56392;51.082;17.080;2022-11-21T17:16:32;45.03;;;18.77;;
69280;SDS011;56392;51.082;17.080;2022-11-21T17:21:38;71.18;;;25.55;;
69280;SDS011;56392;51.082;17.080;2022-11-21T17:26:41;62.87;;;21.70;;
69280;SDS011;56392;51.082;17.080;2022-11-21T17:31:45;42.55;;;17.98;;
69280;SDS011;56392;51.082;17.080;2022-11-21T17:36:51;46.92;;;18.55;;
69280;SDS011;56392;51.082;17.080;2022-11-21T17:41:54;51.67;;;20.77;;
69280;SDS011;56392;51.082;17.080;2022-11-21T17:47:00;45.85;;;18.75;;
69280;SDS011;56392;51.082;17.080;2022-11-21T17:52:04;42.83;;;17.17;;
69280;SDS011;56392;51.082;17.080;2022-11-21T17:57:08;45.07;;;18.73;;
69280;SDS011;56392;51.082;17.080;2022-11-21T18:02:13;59.80;;;22.80;;
69280;SDS011;56392;51.082;17.080;2022-11-21T18:07:18;46.50;;;20.05;;
69280;SDS011;56392;51.082;17.080;2022-11-21T18:12:21;84.10;;;27.45;;
69280;SDS011;56392;51.082;17.080;2022-11-21T18:17:25;104.83;;;30.83;;
69280;SDS011;56392;51.082;17.080;2022-11-21T18:22:30;107.60;;;32.05;;
69280;SDS011;56392;51.082;17.080;2022-11-21T18:27:35;42.35;;;18.58;;
69280;SDS011;56392;51.082;17.080;2022-11-21T18:32:39;53.37;;;21.27;;
69280;SDS011;56392;51.082;17.080;2022-11-21T18:37:42;50.80;;;19.02;;
69280;SDS011;56392;51.082;17.080;2022-11-21T18:42:45;79.10;;;25.63;;
69280;SDS011;56392;51.082;17.080;2022-11-21T18:47:49;139.50;;;38.30;;
69280;SDS011;56392;51.082;17.080;2022-11-21T18:52:52;90.57;;;27.87;;
69280;SDS011;56392;51.082;17.080;2022-11-21T18:57:55;58.90;;;21.33;;
69280;SDS011;56392;51.082;17.080;2022-11-21T19:03:00;85.85;;;27.85;;
69280;SDS011;56392;51.082;17.080;2022-11-21T19:08:03;58.27;;;20.90;;
69280;SDS011;56392;51.082;17.080;2022-11-21T19:13:06;54.47;;;18.90;;
69280;SDS011;56392;51.082;17.080;2022-11-21T19:18:11;44.53;;;17.88;;
69280;SDS011;56392;51.082;17.080;2022-11-21T19:23:14;44.30;;;17.20;;
69280;SDS011;56392;51.082;17.080;2022-11-21T19:28:17;53.00;;;19.58;;
69280;SDS011;56392;51.082;17.080;2022-11-21T19:33:21;42.42;;;17.30;;
69280;SDS011;56392;51.082;17.080;2022-11-21T19:38:24;58.07;;;21.47;;
69280;SDS011;56392;51.082;17.080;2022-11-21T19:43:27;40.87;;;17.13;;
69280;SDS011;56392;51.082;17.080;2022-11-21T19:48:31;65.38;;;24.17;;
69280;SDS011;56392;51.082;17.080;2022-11-21T19:53:36;59.97;;;20.52;;
69280;SDS011;56392;51.082;17.080;2022-11-21T19:58:39;99.60;;;31.90;;
69280;SDS011;56392;51.082;17.080;2022-11-21T20:03:45;45.28;;;19.00;;
69280;SDS011;56392;51.082;17.080;2022-11-21T20:08:49;46.30;;;19.17;;
69280;SDS011;56392;51.082;17.080;2022-11-21T20:13:54;55.13;;;23.33;;
69280;SDS011;56392;51.082;17.080;2022-11-21T20:18:59;129.80;;;39.65;;
69280;SDS011;56392;51.082;17.080;2022-11-21T20:24:03;71.82;;;29.30;;
69280;SDS011;56392;51.082;17.080;2022-11-21T20:29:07;69.70;;;26.20;;
69280;SDS011;56392;51.082;17.080;2022-11-21T20:34:11;70.50;;;26.43;;
69280;SDS011;56392;51.082;17.080;2022-11-21T20:39:15;53.80;;;22.75;;
69280;SDS011;56392;51.082;17.080;2022-11-21T20:44:19;49.00;;;21.33;;
69280;SDS011;56392;51.082;17.080;2022-11-21T20:49:23;52.27;;;20.27;;
69280;SDS011;56392;51.082;17.080;2022-11-21T20:54:26;44.17;;;18.55;;
69280;SDS011;56392;51.082;17.080;2022-11-21T20:59:29;46.65;;;18.70;;
69280;SDS011;56392;51.082;17.080;2022-11-21T21:04:33;91.00;;;30.07;;
69280;SDS011;56392;51.082;17.080;2022-11-21T21:09:36;92.30;;;30.67;;
69280;SDS011;56392;51.082;17.080;2022-11-21T21:14:39;194.80;;;51.03;;
69280;SDS011;56392;51.082;17.080;2022-11-21T21:19:43;241.37;;;60.17;;
69280;SDS011;56392;51.082;17.080;2022-11-21T21:24:46;157.87;;;43.13;;
69280;SDS011;56392;51.082;17.080;2022-11-21T21:29:48;323.10;;;70.20;;
69280;SDS011;56392;51.082;17.080;2022-11-21T21:34:52;250.48;;;69.50;;
69280;SDS011;56392;51.082;17.080;2022-11-21T21:39:55;271.63;;;72.17;;
69280;SDS011;56392;51.082;17.080;2022-11-21T21:44:58;246.40;;;66.50;;
69280;SDS011;56392;51.082;17.080;2022-11-21T21:50:04;211.60;;;59.55;;
69280;SDS011;56392;51.082;17.080;2022-11-21T21:55:08;224.50;;;61.67;;
69280;SDS011;56392;51.082;17.080;2022-11-21T22:00:11;406.98;;;75.25;;
69280;SDS011;56392;51.082;17.080;2022-11-21T22:05:16;225.18;;;59.50;;
69280;SDS011;56392;51.082;17.080;2022-11-21T22:10:19;254.70;;;66.23;;
69280;SDS011;56392;51.082;17.080;2022-11-21T22:15:21;295.27;;;69.78;;
69280;SDS011;56392;51.082;17.080;2022-11-21T22:20:26;276.77;;;69.70;;
69280;SDS011;56392;51.082;17.080;2022-11-21T22:25:29;276.03;;;71.33;;
69280;SDS011;56392;51.082;17.080;2022-11-21T22:30:32;330.03;;;70.57;;
69280;SDS011;56392;51.082;17.080;2022-11-21T22:35:37;272.85;;;69.13;;
69280;SDS011;56392;51.082;17.080;2022-11-21T22:40:40;352.48;;;76.25;;
69280;SDS011;56392;51.082;17.080;2022-11-21T22:45:43;275.43;;;70.37;;
69280;SDS011;56392;51.082;17.080;2022-11-21T22:50:48;270.33;;;70.65;;
69280;SDS011;56392;51.082;17.080;2022-11-21T22:55:54;292.17;;;70.32;;
69280;SDS011;56392;51.082;17.080;2022-11-21T23:00:58;277.60;;;69.70;;
69280;SDS011;56392;51.082;17.080;2022-11-21T23:06:04;241.07;;;61.08;;
69280;SDS011;56392;51.082;17.080;2022-11-21T23:11:09;244.90;;;62.78;;
69280;SDS011;56392;51.082;17.080;2022-11-21T23:16:14;283.67;;;63.67;;
69280;SDS011;56392;51.082;17.080;2022-11-21T23:21:18;226.07;;;54.53;;
69280;SDS011;56392;51.082;17.080;2022-11-21T23:26:22;235.48;;;55.63;;
69280;SDS011;56392;51.082;17.080;2022-11-21T23:31:24;184.93;;;49.42;;
69280;SDS011;56392;51.082;17.080;2022-11-21T23:36:29;209.63;;;51.87;;
69280;SDS011;56392;51.082;17.080;2022-11-21T23:41:32;237.55;;;59.25;;
69280;SDS011;56392;51.082;17.080;2022-11-21T23:46:36;214.73;;;56.95;;
69280;SDS011;56392;51.082;17.080;2022-11-21T23:51:40;227.17;;;55.43;;
69280;SDS011;56392;51.082;17.080;2022-11-21T23:56:42;175.52;;;47.47;;
